Time;durP1;ratioP1;P1;durP2;ratioP2;P2;SDS_P1;SDS_P2;PMS_P1;PMS_P2;Temp;Humidity;BMP_temperature;BMP_pressure;BME280_temperature;BME280_humidity;BME280_pressure;Samples;Min_cycle;Max_cycle;Signal;HPM_P1;HPM_P2
2021/05/29 00:02:20;;;;;;;3.55;2.25;;;384.30;2201.60;;;;;;5070245;28;20734;-81
2021/05/29 00:04:46;;;;;;;3.47;2.10;;;384.30;2201.60;;;;;;5079783;28;20038;-82
2021/05/29 00:07:12;;;;;;;3.60;2.63;;;384.40;2176.00;;;;;;5075871;28;20060;-83
2021/05/29 00:09:38;;;;;;;3.58;2.35;;;384.30;2176.00;;;;;;5074127;28;20044;-82
2021/05/29 00:12:06;;;;;;;3.75;2.40;;;384.70;2176.00;;;;;;5072493;28;20021;-83
2021/05/29 00:14:34;;;;;;;2.33;2.10;;;384.30;2176.00;;;;;;5070665;28;20024;-82
2021/05/29 00:16:59;;;;;;;3.28;2.40;;;384.30;2176.00;;;;;;5066837;28;20034;-82
2021/05/29 00:19:25;;;;;;;4.32;2.40;;;384.30;2176.00;;;;;;5071674;28;20533;-81
2021/05/29 00:21:51;;;;;;;4.25;2.58;;;384.30;2176.00;;;;;;5072812;28;20071;-82
2021/05/29 00:24:17;;;;;;;3.97;2.58;;;384.20;2201.60;;;;;;5075583;28;20398;-82
2021/05/29 00:26:42;;;;;;;3.72;2.47;;;384.20;2201.60;;;;;;5078661;28;20095;-83
2021/05/29 00:29:08;;;;;;;4.10;2.22;;;384.20;2201.60;;;;;;5076392;28;20028;-84
2021/05/29 00:31:34;;;;;;;5.65;2.47;;;384.20;2201.60;;;;;;5070274;28;20024;-84
2021/05/29 00:34:00;;;;;;;4.18;2.60;;;384.10;2201.60;;;;;;5074029;28;20024;-84
2021/05/29 00:36:25;;;;;;;3.55;2.30;;;384.00;2201.60;;;;;;5071549;28;20038;-83
2021/05/29 00:38:51;;;;;;;3.10;2.25;;;384.00;2227.20;;;;;;5070431;28;20450;-83
2021/05/29 00:41:19;;;;;;;6.10;2.47;;;384.00;2227.20;;;;;;5082736;28;20031;-83
2021/05/29 00:43:46;;;;;;;3.80;2.30;;;384.00;2252.80;;;;;;5073839;28;20059;-82
2021/05/29 00:46:12;;;;;;;6.07;2.58;;;384.00;2227.20;;;;;;5071142;28;20040;-83
2021/05/29 00:48:38;;;;;;;4.55;2.40;;;384.00;2252.80;;;;;;5070483;28;20028;-81
2021/05/29 00:51:06;;;;;;;4.65;2.45;;;359.30;2252.80;;;;;;5074185;28;20559;-83
2021/05/29 00:53:34;;;;;;;4.22;2.33;;;359.20;2252.80;;;;;;5073502;28;20374;-80
2021/05/29 00:56:01;;;;;;;4.22;2.50;;;359.20;2252.80;;;;;;5076306;28;20064;-83
2021/05/29 00:58:28;;;;;;;3.83;2.42;;;359.20;2252.80;;;;;;5084669;28;20032;-84
2021/05/29 01:00:54;;;;;;;4.88;2.53;;;359.20;2227.20;;;;;;5074939;28;20102;-81
2021/05/29 01:03:21;;;;;;;3.45;2.40;;;359.20;2252.80;;;;;;5074079;28;20029;-80
2021/05/29 01:05:48;;;;;;;5.07;2.90;;;359.20;2252.80;;;;;;5082724;28;20127;-83
2021/05/29 01:08:14;;;;;;;4.18;2.70;;;359.10;2252.80;;;;;;5074369;28;20466;-81
2021/05/29 01:10:41;;;;;;;3.28;2.47;;;359.10;2252.80;;;;;;5073606;28;20043;-83
2021/05/29 01:13:09;;;;;;;2.60;2.22;;;359.10;2252.80;;;;;;5081616;28;20052;-84
2021/05/29 01:15:41;;;;;;;3.30;2.40;;;359.10;2252.80;;;;;;5071920;28;20078;-85
2021/05/29 01:18:11;;;;;;;3.88;2.70;;;359.10;2227.20;;;;;;5066836;28;20024;-84
2021/05/29 01:20:37;;;;;;;4.38;2.40;;;359.10;2227.20;;;;;;5074364;28;20400;-80
2021/05/29 01:23:03;;;;;;;4.82;2.50;;;359.10;2227.20;;;;;;5063402;28;20020;-83
2021/05/29 01:25:36;;;;;;;5.90;2.75;;;359.10;2252.80;;;;;;5073331;28;20037;-83
2021/05/29 01:28:04;;;;;;;3.22;2.60;;;359.00;2252.80;;;;;;5072828;28;20074;-83
2021/05/29 01:30:33;;;;;;;4.25;2.58;;;359.00;2252.80;;;;;;5074966;28;20029;-81
2021/05/29 01:33:00;;;;;;;3.47;2.80;;;359.00;2252.80;;;;;;5073000;28;20021;-82
2021/05/29 01:35:26;;;;;;;5.22;2.83;;;358.90;2252.80;;;;;;5074955;28;20145;-82
2021/05/29 01:37:54;;;;;;;3.97;2.58;;;384.10;2252.80;;;;;;5073800;28;20028;-83
2021/05/29 01:40:19;;;;;;;6.20;2.58;;;358.90;2252.80;;;;;;5073722;28;20548;-83
2021/05/29 01:42:46;;;;;;;3.55;2.72;;;358.90;2252.80;;;;;;5081690;28;20051;-84
2021/05/29 01:45:15;;;;;;;10.35;3.97;;;358.90;2252.80;;;;;;5073202;28;20496;-84
2021/05/29 01:47:43;;;;;;;6.35;2.63;;;358.90;2252.80;;;;;;5073831;28;20021;-84
2021/05/29 01:50:15;;;;;;;4.28;2.65;;;358.90;2252.80;;;;;;5079058;28;20024;-82
2021/05/29 01:52:55;;;;;;;5.93;2.67;;;358.90;2252.80;;;;;;5074674;28;20019;-83
2021/05/29 01:55:25;;;;;;;3.85;2.50;;;358.90;2252.80;;;;;;5068192;28;20131;-83
2021/05/29 01:57:52;;;;;;;3.33;2.50;;;358.90;2252.80;;;;;;5087763;28;20055;-84
2021/05/29 02:00:20;;;;;;;3.72;2.55;;;358.80;2252.80;;;;;;5073765;28;20078;-83
2021/05/29 02:02:47;;;;;;;3.80;2.33;;;358.80;2252.80;;;;;;5087922;28;20066;-83
2021/05/29 02:05:23;;;;;;;5.78;2.70;;;358.80;2278.40;;;;;;5079633;28;20036;-82
2021/05/29 02:07:50;;;;;;;4.40;2.75;;;358.80;2304.00;;;;;;5073388;28;20017;-84
2021/05/29 02:10:21;;;;;;;2.88;2.58;;;358.70;2278.40;;;;;;5073166;28;20453;-84
2021/05/29 02:12:52;;;;;;;3.20;2.38;;;358.70;2329.60;;;;;;5083302;28;20024;-84
2021/05/29 02:15:21;;;;;;;4.55;2.47;;;358.70;2278.40;;;;;;5073405;28;20017;-84
2021/05/29 02:17:50;;;;;;;3.22;2.70;;;358.70;2304.00;;;;;;5072961;28;20077;-84
2021/05/29 02:20:18;;;;;;;3.13;2.63;;;358.70;2278.40;;;;;;5072486;28;20032;-84
2021/05/29 02:22:44;;;;;;;2.40;2.20;;;358.70;2304.00;;;;;;5075481;28;20033;-84
2021/05/29 02:25:10;;;;;;;4.03;2.83;;;358.70;2278.40;;;;;;5072455;28;20044;-84
2021/05/29 02:27:36;;;;;;;4.57;2.60;;;358.70;2304.00;;;;;;5072575;28;20096;-84
2021/05/29 02:30:05;;;;;;;5.25;3.28;;;358.70;2278.40;;;;;;5067317;28;20111;-83
2021/05/29 02:32:30;;;;;;;4.63;2.72;;;358.70;2278.40;;;;;;5067895;28;20366;-84
2021/05/29 02:34:56;;;;;;;4.18;2.47;;;358.70;2278.40;;;;;;5072928;28;20478;-83
2021/05/29 02:37:22;;;;;;;5.13;2.90;;;358.70;2278.40;;;;;;5072483;28;20035;-83
2021/05/29 02:39:49;;;;;;;3.85;2.70;;;358.60;2304.00;;;;;;5073268;28;20039;-82
2021/05/29 02:42:15;;;;;;;6.90;2.85;;;358.60;2304.00;;;;;;5066516;28;20086;-84
2021/05/29 02:44:40;;;;;;;4.20;2.70;;;358.60;2304.00;;;;;;5071971;28;20056;-81
2021/05/29 02:47:06;;;;;;;5.50;2.97;;;358.60;2304.00;;;;;;5072258;28;20048;-84
2021/05/29 02:49:32;;;;;;;5.45;2.88;;;358.60;2304.00;;;;;;5080912;28;20035;-84
2021/05/29 02:51:58;;;;;;;6.18;3.13;;;358.60;2304.00;;;;;;5077541;28;20138;-83
2021/05/29 02:54:24;;;;;;;4.00;2.72;;;358.50;2304.00;;;;;;5073509;28;20028;-84
2021/05/29 02:56:50;;;;;;;6.28;2.80;;;358.50;2304.00;;;;;;5073015;28;20075;-83
2021/05/29 02:59:16;;;;;;;6.00;2.75;;;358.50;2304.00;;;;;;5074219;28;20358;-84
2021/05/29 03:01:43;;;;;;;5.75;2.90;;;358.40;2329.60;;;;;;5067580;28;20021;-78
2021/05/29 03:04:09;;;;;;;3.50;2.72;;;358.40;2329.60;;;;;;5075265;28;20027;-82
2021/05/29 03:06:35;;;;;;;3.20;2.75;;;358.40;2329.60;;;;;;5083291;28;20469;-84
2021/05/29 03:09:03;;;;;;;3.85;2.60;;;358.40;2329.60;;;;;;5081079;28;20051;-84
2021/05/29 03:11:34;;;;;;;4.85;3.05;;;358.40;2329.60;;;;;;5071555;28;20029;-83
2021/05/29 03:14:00;;;;;;;6.47;3.00;;;358.50;2329.60;;;;;;5070382;28;20374;-84
2021/05/29 03:16:27;;;;;;;3.58;2.67;;;358.40;2329.60;;;;;;5072636;28;20465;-84
2021/05/29 03:18:52;;;;;;;5.13;3.10;;;358.40;2329.60;;;;;;5076921;28;20027;-84
2021/05/29 03:21:18;;;;;;;9.75;3.40;;;333.70;2329.60;;;;;;5072379;28;20025;-83
2021/05/29 03:23:44;;;;;;;3.58;3.00;;;333.70;2329.60;;;;;;5067540;28;20098;-84
2021/05/29 03:26:10;;;;;;;6.78;3.10;;;333.70;2329.60;;;;;;5075946;28;20032;-84
2021/05/29 03:28:35;;;;;;;4.38;2.90;;;333.70;2329.60;;;;;;5068117;28;20469;-81
2021/05/29 03:31:01;;;;;;;4.88;3.10;;;333.70;2329.60;;;;;;5078769;28;20031;-83
2021/05/29 03:33:27;;;;;;;3.20;2.85;;;333.70;2329.60;;;;;;5067765;28;20111;-82
2021/05/29 03:35:53;;;;;;;5.97;2.95;;;333.70;2329.60;;;;;;5072329;28;20082;-83
2021/05/29 03:38:19;;;;;;;4.20;2.92;;;333.70;2329.60;;;;;;5076774;28;20374;-76
2021/05/29 03:40:46;;;;;;;4.28;3.00;;;358.40;2329.60;;;;;;5071894;28;20083;-83
2021/05/29 03:43:12;;;;;;;3.70;2.80;;;358.40;2329.60;;;;;;5075266;28;20083;-84
2021/05/29 03:45:38;;;;;;;4.25;2.90;;;358.40;2329.60;;;;;;5071530;28;20131;-83
2021/05/29 03:48:04;;;;;;;7.47;3.10;;;358.40;2329.60;;;;;;5079150;28;20119;-82
2021/05/29 03:50:30;;;;;;;7.53;3.10;;;358.40;2329.60;;;;;;5081816;28;20036;-83
2021/05/29 03:52:56;;;;;;;5.05;2.88;;;358.40;2329.60;;;;;;5071265;28;20024;-83
2021/05/29 03:55:22;;;;;;;4.05;3.00;;;358.40;2329.60;;;;;;5071308;28;20025;-83
2021/05/29 03:57:49;;;;;;;5.60;2.80;;;358.50;2329.60;;;;;;5075500;28;20091;-82
2021/05/29 04:00:19;;;;;;;4.13;3.13;;;358.50;2329.60;;;;;;5071366;28;20024;-84
2021/05/29 04:02:46;;;;;;;5.65;2.92;;;358.50;2329.60;;;;;;5070072;28;20013;-83
2021/05/29 04:05:13;;;;;;;5.93;3.15;;;358.60;2329.60;;;;;;5074214;28;20501;-83
2021/05/29 04:07:39;;;;;;;6.88;3.28;;;358.60;2329.60;;;;;;5070921;28;20074;-84
2021/05/29 04:10:08;;;;;;;6.32;3.00;;;358.70;2329.60;;;;;;5073477;28;20032;-82
2021/05/29 04:12:34;;;;;;;4.18;3.38;;;358.70;2329.60;;;;;;5074308;28;20067;-81
2021/05/29 04:15:00;;;;;;;8.35;3.30;;;358.70;2329.60;;;;;;5080686;28;20064;-81
2021/05/29 04:17:26;;;;;;;8.35;5.90;;;358.70;2329.60;;;;;;5041804;28;20036;-82
2021/05/29 04:19:52;;;;;;;25.50;15.02;;;358.70;2329.60;;;;;;5077234;28;20057;-83
2021/05/29 04:22:18;;;;;;;7.25;4.10;;;358.70;2329.60;;;;;;5063571;28;20057;-80
2021/05/29 04:24:44;;;;;;;8.38;5.72;;;358.60;2329.60;;;;;;5069909;28;20037;-82
2021/05/29 04:27:11;;;;;;;10.10;5.80;;;358.70;2329.60;;;;;;5070406;28;20021;-79
2021/05/29 04:29:36;;;;;;;7.95;5.65;;;358.70;2329.60;;;;;;5079028;28;20031;-75
2021/05/29 04:32:03;;;;;;;7.35;4.43;;;358.70;2329.60;;;;;;5082782;28;20108;-82
2021/05/29 04:34:29;;;;;;;9.50;4.50;;;358.70;2329.60;;;;;;5079399;28;20766;-82
2021/05/29 04:36:55;;;;;;;7.47;4.53;;;358.70;2329.60;;;;;;5079347;28;20032;-83
2021/05/29 04:39:21;;;;;;;10.43;5.15;;;358.80;2329.60;;;;;;5073950;28;20032;-77
2021/05/29 04:41:46;;;;;;;6.50;4.10;;;358.90;2329.60;;;;;;5072830;28;20017;-81
2021/05/29 04:44:12;;;;;;;11.32;5.45;;;358.90;2329.60;;;;;;5083332;28;20033;-77
2021/05/29 04:46:41;;;;;;;8.75;4.57;;;359.00;2329.60;;;;;;5086656;28;20031;-76
2021/05/29 04:49:07;;;;;;;6.75;3.90;;;359.00;2329.60;;;;;;5082770;28;20031;-81
2021/05/29 04:51:33;;;;;;;7.25;4.68;;;359.10;2329.60;;;;;;5081662;28;20123;-82
2021/05/29 04:53:59;;;;;;;6.50;3.85;;;359.10;2329.60;;;;;;5084556;28;20095;-78
2021/05/29 04:56:24;;;;;;;7.75;4.18;;;359.20;2329.60;;;;;;5083283;28;20151;-81
2021/05/29 04:58:50;;;;;;;5.85;3.22;;;384.00;2329.60;;;;;;5060111;28;20040;-76
2021/05/29 05:01:16;;;;;;;6.32;3.83;;;384.00;2329.60;;;;;;5076469;28;20031;-76
2021/05/29 05:03:42;;;;;;;4.95;3.38;;;384.10;2329.60;;;;;;5082878;28;20381;-75
2021/05/29 05:06:08;;;;;;;8.10;3.67;;;384.30;2329.60;;;;;;5086725;28;20040;-75
2021/05/29 05:08:34;;;;;;;5.03;3.15;;;;;;;;;;5075653;28;20545;-75
2021/05/29 05:11:00;;;;;;;3.72;3.15;;;;;;;;;;5088239;28;20028;-72
2021/05/29 05:13:28;;;;;;;4.40;3.20;;;;;;;;;;5081780;28;20024;-75
2021/05/29 05:15:54;;;;;;;7.55;3.20;;;;;;;;;;5081229;28;20020;-75
2021/05/29 05:18:21;;;;;;;5.18;3.13;;;;;;;;;;5088855;28;20060;-75
2021/05/29 05:20:50;;;;;;;7.13;3.22;;;;;;;;;;5088525;28;20029;-75
2021/05/29 05:23:18;;;;;;;5.88;4.00;;;;;;;;;;5083978;28;20103;-75
2021/05/29 05:25:44;;;;;;;4.90;3.40;;;;;;;;;;5076548;28;20032;-75
2021/05/29 05:28:15;;;;;;;7.15;3.42;;;;;;;;;;5073780;28;20020;-73
2021/05/29 05:30:44;;;;;;;4.22;3.25;;;;;;;;;;5077640;28;20136;-77
2021/05/29 05:33:10;;;;;;;4.15;3.25;;;;;;;;;;5070797;28;20058;-73
2021/05/29 05:35:38;;;;;;;7.93;3.78;;;;;;;;;;5076879;28;20023;-80
2021/05/29 05:38:04;;;;;;;5.15;3.17;;;;;;;;;;5079958;28;20107;-74
2021/05/29 05:40:30;;;;;;;7.95;3.47;;;;;;;;;;5086725;28;20434;-76
2021/05/29 05:42:56;;;;;;;5.47;3.35;;;;;;;;;;5090625;28;20024;-75
2021/05/29 05:45:22;;;;;;;4.85;3.60;;;;;;;;;;5081229;28;20079;-76
2021/05/29 05:47:48;;;;;;;6.10;3.80;;;;;;;;;;5080525;28;20033;-72
2021/05/29 05:50:16;;;;;;;4.63;3.30;;;;;;;;;;5080301;28;20056;-76
2021/05/29 05:52:42;;;;;;;6.40;3.60;;;;;;;;;;5081264;28;20156;-76
2021/05/29 05:55:09;;;;;;;4.93;3.50;;;;;;;;;;5075600;28;20112;-75
2021/05/29 05:57:35;;;;;;;7.60;3.72;;;;;;;;;;5066379;28;20489;-76
2021/05/29 06:00:03;;;;;;;4.68;3.40;;;;;;;;;;5064692;28;20033;-79
2021/05/29 06:02:29;;;;;;;5.85;3.45;;;;;;;;;;5067015;28;20027;-78
2021/05/29 06:04:55;;;;;;;5.57;3.40;;;;;;;;;;5068524;28;20109;-79
2021/05/29 06:07:21;;;;;;;5.00;3.40;;;;;;;;;;5068210;28;20078;-79
2021/05/29 06:09:47;;;;;;;4.72;3.70;;;;;;;;;;5065848;28;20123;-81
2021/05/29 06:12:13;;;;;;;6.85;3.78;;;;;;;;;;5069748;28;20025;-79
2021/05/29 06:20:11;;;;;;;7.20;4.03;;;;;;;;;;5071063;28;20078;-81
2021/05/29 06:22:39;;;;;;;7.85;3.88;;;;;;;;;;5069454;28;20047;-81
2021/05/29 06:25:06;;;;;;;8.50;4.32;;;;;;;;;;5060998;28;20055;-80
2021/05/29 06:27:32;;;;;;;8.05;4.88;;;;;;;;;;5064285;28;20029;-77
2021/05/29 06:29:58;;;;;;;6.80;4.03;;;;;;;;;;5067868;28;20062;-76
2021/05/29 06:32:24;;;;;;;11.77;4.45;;;;;;;;;;5063190;28;20107;-79
2021/05/29 06:34:50;;;;;;;5.32;3.63;;;;;;;;;;5070549;28;20029;-80
2021/05/29 06:37:16;;;;;;;9.50;4.47;;;;;;;;;;5068776;28;20126;-83
2021/05/29 06:39:45;;;;;;;6.05;3.25;;;;;;;;;;5075183;28;20025;-85
2021/05/29 06:42:11;;;;;;;4.93;3.70;;;;;;;;;;5082008;28;20381;-82
2021/05/29 06:44:37;;;;;;;5.60;3.35;;;;;;;;;;5072763;28;20168;-81
2021/05/29 06:47:04;;;;;;;6.20;3.40;;;;;;;;;;5068496;28;20036;-85
2021/05/29 06:49:30;;;;;;;4.70;3.20;;;;;;;;;;5085938;28;20016;-82
2021/05/29 06:52:06;;;;;;;6.35;3.10;;;;;;;;;;5084724;28;20056;-83
2021/05/29 06:58:37;;;;;;;6.72;3.30;;;;;;;;;;5089440;28;20051;-83
2021/05/29 07:00:05;;;;;;;5.57;3.53;;;;;;;;;;5061648;28;20504;-82
2021/05/29 07:02:33;;;;;;;6.07;3.38;;;;;;;;;;5065997;28;20039;-80
2021/05/29 07:04:59;;;;;;;5.43;2.97;;;;;;;;;;5070732;28;20499;-82
2021/05/29 07:07:25;;;;;;;13.10;3.25;;;;;;;;;;5078286;28;20029;-79
2021/05/29 07:09:51;;;;;;;6.43;3.28;;;;;;;;;;5066716;28;20026;-82
2021/05/29 07:12:17;;;;;;;8.90;3.20;;;;;;;;;;5066292;28;20029;-80
2021/05/29 07:14:43;;;;;;;5.03;3.30;;;;;;;;;;5062907;28;20033;-82
2021/05/29 07:17:09;;;;;;;3.53;2.95;;;;;;;;;;5059674;28;20111;-79
2021/05/29 07:19:36;;;;;;;9.57;3.75;;;;;;;;;;5069602;28;20397;-77
2021/05/29 07:22:02;;;;;;;4.82;3.10;;;;;;;;;;5078908;28;20036;-85
2021/05/29 07:24:28;;;;;;;8.00;3.30;;;;;;;;;;5078291;28;20044;-79
2021/05/29 07:26:55;;;;;;;5.63;3.00;;;;;;;;;;5067318;28;20086;-80
2021/05/29 07:29:21;;;;;;;4.25;3.20;;;;;;;;;;5067785;28;20020;-73
2021/05/29 07:31:47;;;;;;;5.20;3.15;;;;;;;;;;5064675;28;20052;-72
2021/05/29 07:34:14;;;;;;;6.00;3.35;;;;;;;;;;5057999;28;20035;-79
2021/05/29 07:36:42;;;;;;;8.32;3.95;;;;;;;;;;5075848;28;20466;-76
2021/05/29 07:39:09;;;;;;;8.45;3.05;;;;;;;;;;5090149;28;20024;-82
2021/05/29 07:41:35;;;;;;;5.57;3.00;;;;;;;;;;5078370;28;20039;-89
2021/05/29 07:44:02;;;;;;;5.68;2.92;;;;;;;;;;5077030;28;20482;-83
2021/05/29 07:46:29;;;;;;;4.15;3.03;;;;;;;;;;5052832;28;20395;-85
2021/05/29 07:48:55;;;;;;;6.07;3.00;;;;;;;;;;5070980;28;20035;-83
2021/05/29 07:51:23;;;;;;;5.18;3.10;;;;;;;;;;5069560;28;20473;-79
2021/05/29 07:53:49;;;;;;;3.95;2.47;;;;;;;;;;5082877;28;20028;-87
2021/05/29 07:56:17;;;;;;;3.25;2.20;;;;;;;;;;5077720;28;20020;-81
2021/05/29 07:58:43;;;;;;;3.05;2.28;;;;;;;;;;5056025;28;20044;-80
2021/05/29 08:01:11;;;;;;;2.40;2.03;;;;;;;;;;5059994;28;20044;-85
2021/05/29 08:03:37;;;;;;;3.83;2.30;;;;;;;;;;5073160;28;20020;-72
2021/05/29 08:06:09;;;;;;;2.90;2.10;;;;;;;;;;5067456;28;20504;-73
2021/05/29 08:08:36;;;;;;;3.13;2.10;;;;;;;;;;5084465;28;20167;-79
2021/05/29 08:11:03;;;;;;;3.80;2.30;;;;;;;;;;5079530;28;20024;-76
2021/05/29 08:13:32;;;;;;;3.30;2.30;;;;;;;;;;5092393;28;20111;-75
2021/05/29 08:15:59;;;;;;;9.27;2.72;;;;;;;;;;5072675;28;20032;-74
2021/05/29 08:18:25;;;;;;;4.07;2.20;;;;;;;;;;5078986;28;20382;-75
2021/05/29 08:20:51;;;;;;;5.53;2.72;;;;;;;;;;5081013;28;20029;-71
2021/05/29 08:23:18;;;;;;;9.35;2.67;;;;;;;;;;5077868;28;20498;-70
2021/05/29 08:25:46;;;;;;;4.28;2.65;;;;;;;;;;5072292;28;20063;-75
2021/05/29 08:28:12;;;;;;;8.73;2.80;;;;;;;;;;5091708;28;20098;-77
2021/05/29 08:30:38;;;;;;;4.03;2.30;;;;;;;;;;5067747;28;20028;-76
2021/05/29 08:33:06;;;;;;;3.55;2.40;;;;;;;;;;5065131;28;20530;-75
2021/05/29 08:35:32;;;;;;;2.22;2.00;;;;;;;;;;5075294;28;20512;-76
2021/05/29 08:37:58;;;;;;;2.97;2.00;;;;;;;;;;5074737;28;20024;-76
2021/05/29 08:40:26;;;;;;;10.00;2.47;;;;;;;;;;5071274;28;20104;-70
2021/05/29 08:42:52;;;;;;;3.17;2.38;;;;;;;;;;5065472;28;20021;-71
2021/05/29 08:45:20;;;;;;;10.45;2.50;;;;;;;;;;5068441;28;20055;-75
2021/05/29 08:47:47;;;;;;;4.47;2.38;;;;;;;;;;5067390;28;20543;-76
2021/05/29 08:50:13;;;;;;;4.57;2.08;;;;;;;;;;5087357;28;20449;-76
2021/05/29 08:52:40;;;;;;;6.13;2.30;;;;;;;;;;5073501;28;20405;-74
2021/05/29 08:55:10;;;;;;;4.95;1.90;;;;;;;;;;5074923;28;20035;-69
2021/05/29 08:57:37;;;;;;;5.43;1.98;;;;;;;;;;5074439;28;20549;-76
2021/05/29 09:00:15;;;;;;;2.83;1.70;;;;;;;;;;5080728;28;20096;-76
2021/05/29 09:02:56;;;;;;;5.35;1.90;;;;;;;;;;5074196;28;20026;-76
2021/05/29 09:05:35;;;;;;;6.03;2.10;;;;;;;;;;5074334;28;20078;-75
2021/05/29 09:08:05;;;;;;;7.95;2.00;;;;;;;;;;5074066;28;20413;-76
2021/05/29 09:10:34;;;;;;;4.25;1.90;;;;;;;;;;5078989;28;20024;-76
2021/05/29 09:13:07;;;;;;;10.50;2.00;;;;;;;;;;5064655;28;20032;-73
2021/05/29 09:15:39;;;;;;;3.97;1.70;;;;;;;;;;5074170;28;20029;-77
2021/05/29 09:18:06;;;;;;;5.53;1.70;;;;;;;;;;5059739;28;20032;-75
2021/05/29 09:20:32;;;;;;;2.78;1.63;;;;;;;;;;5074087;28;20032;-76
2021/05/29 09:22:59;;;;;;;5.75;2.05;;;;;;;;;;5081673;28;20078;-77
2021/05/29 09:25:26;;;;;;;4.00;1.67;;;;;;;;;;5074446;28;20115;-68
2021/05/29 09:27:52;;;;;;;2.08;1.55;;;;;;;;;;5070842;28;20810;-77
2021/05/29 09:30:36;;;;;;;1.75;1.60;;;;;;;;;;5073875;28;20032;-77
2021/05/29 09:33:09;;;;;;;7.43;1.83;;;;;;;;;;5073888;28;20519;-74
2021/05/29 09:35:35;;;;;;;5.20;2.00;;;;;;;;;;5072824;28;20500;-68
2021/05/29 09:38:05;;;;;;;5.57;1.88;;;;;;;;;;5073676;28;20479;-68
2021/05/29 09:40:32;;;;;;;5.20;2.00;;;;;;;;;;5073636;28;20086;-76
2021/05/29 09:43:04;;;;;;;4.00;1.70;;;;;;;;;;5077133;28;20035;-70
2021/05/29 09:45:31;;;;;;;10.23;2.00;;;;;;;;;;5073346;28;20044;-77
2021/05/29 09:48:10;;;;;;;6.38;2.20;;;;;;;;;;5073166;28;20021;-68
2021/05/29 09:50:36;;;;;;;3.72;1.60;;;;;;;;;;5072682;28;20029;-68
2021/05/29 09:53:02;;;;;;;8.38;2.17;;;;;;;;;;5075639;28;20512;-74
2021/05/29 09:55:38;;;;;;;5.75;2.35;;;;;;;;;;5077024;28;20047;-68
2021/05/29 09:58:04;;;;;;;4.68;2.00;;;;;;;;;;5073346;28;20021;-68
2021/05/29 10:00:40;;;;;;;7.10;1.83;;;;;;;;;;5070621;28;20021;-70
2021/05/29 10:03:07;;;;;;;4.25;2.00;;;;;;;;;;5075111;28;20067;-75
2021/05/29 10:05:34;;;;;;;5.25;1.83;;;;;;;;;;5079336;28;20039;-77
2021/05/29 10:08:01;;;;;;;5.07;2.03;;;;;;;;;;5076044;28;20032;-76
2021/05/29 10:10:27;;;;;;;3.78;2.10;;;;;;;;;;5088419;28;20036;-71
2021/05/29 10:12:53;;;;;;;4.82;1.95;;;;;;;;;;5074570;28;20036;-80
2021/05/29 10:15:20;;;;;;;8.32;2.20;;;;;;;;;;5080518;28;20020;-76
2021/05/29 10:17:46;;;;;;;4.00;2.10;;;;;;;;;;5077819;28;20149;-70
2021/05/29 10:20:13;;;;;;;5.93;2.20;;;;;;;;;;5083729;28;20031;-81
2021/05/29 10:22:39;;;;;;;5.45;2.00;;;;;;;;;;5081068;28;20020;-79
2021/05/29 10:25:10;;;;;;;2.63;1.83;;;;;;;;;;5082266;28;20032;-83
2021/05/29 10:27:37;;;;;;;5.88;2.00;;;;;;;;;;5078038;28;20016;-80
2021/05/29 10:30:04;;;;;;;5.22;2.53;;;;;;;;;;5075461;28;20035;-80
2021/05/29 10:32:30;;;;;;;7.53;2.10;;;;;;;;;;5083288;28;20020;-78
2021/05/29 10:35:00;;;;;;;3.70;1.92;;;;;;;;;;5079770;28;20016;-76
2021/05/29 10:37:34;;;;;;;7.55;2.00;;;;;;;;;;5072309;28;20052;-72
2021/05/29 10:40:19;;;;;;;8.25;2.80;;;;;;;;;;5080164;28;20170;-79
2021/05/29 10:42:47;;;;;;;4.90;2.03;;;;;;;;;;5086364;28;20023;-72
2021/05/29 10:45:21;;;;;;;7.63;2.40;;;;;;;;;;5078498;28;20134;-81
2021/05/29 10:48:03;;;;;;;4.88;2.00;;;;;;;;;;5075972;28;20537;-75
2021/05/29 10:50:59;;;;;;;9.52;2.03;;;;;;;;;;5076740;28;20025;-79
2021/05/29 10:53:43;;;;;;;3.75;2.05;;;;;;;;;;5090380;28;20024;-72
2021/05/29 10:56:16;;;;;;;10.63;2.10;;;;;;;;;;5083631;28;20024;-78
2021/05/29 10:59:01;;;;;;;3.37;2.10;;;;;;;;;;5071945;28;20032;-86
2021/05/29 11:01:36;;;;;;;13.98;2.40;;;;;;;;;;5067414;28;20083;-73
2021/05/29 11:04:18;;;;;;;6.63;2.55;;;;;;;;;;5071970;28;20036;-73
2021/05/29 11:07:07;;;;;;;5.93;2.00;;;;;;;;;;5071851;28;20036;-79
2021/05/29 11:09:33;;;;;;;6.75;2.03;;;;;;;;;;5065155;28;20055;-73
2021/05/29 11:12:00;;;;;;;3.85;2.17;;;;;;;;;;5071783;28;20040;-76
2021/05/29 11:14:32;;;;;;;6.57;1.90;;;;;;;;;;5070035;28;20087;-73
2021/05/29 11:16:58;;;;;;;3.33;1.80;;;;;;;;;;5071958;28;20154;-78
2021/05/29 11:19:24;;;;;;;9.18;2.03;;;;;;;;;;5068886;28;20025;-73
2021/05/29 11:21:59;;;;;;;8.00;2.10;;;;;;;;;;5071200;28;20033;-78
2021/05/29 11:24:29;;;;;;;6.85;2.20;;;;;;;;;;5069796;28;20107;-77
2021/05/29 11:26:56;;;;;;;3.20;2.03;;;;;;;;;;5067066;28;20020;-76
2021/05/29 11:29:22;;;;;;;4.28;2.05;;;;;;;;;;5065222;28;20426;-77
2021/05/29 11:31:49;;;;;;;6.22;2.10;;;;;;;;;;5065095;28;20104;-76
2021/05/29 11:34:15;;;;;;;6.95;2.15;;;;;;;;;;5061408;28;20027;-78
2021/05/29 11:36:42;;;;;;;5.35;2.20;;;;;;;;;;5071777;28;20436;-80
2021/05/29 11:39:08;;;;;;;7.72;2.13;;;;;;;;;;5071709;28;20461;-79
2021/05/29 11:41:34;;;;;;;4.63;2.10;;;;;;;;;;5073414;28;20097;-78
2021/05/29 11:44:02;;;;;;;2.83;2.00;;;;;;;;;;5071914;28;20040;-72
2021/05/29 11:46:30;;;;;;;3.05;2.00;;;;;;;;;;5072057;28;20048;-73
2021/05/29 11:48:59;;;;;;;7.20;2.22;;;;;;;;;;5071703;28;20028;-80
2021/05/29 11:51:26;;;;;;;4.93;2.40;;;;;;;;;;5074569;28;20029;-79
2021/05/29 11:53:53;;;;;;;7.32;2.28;;;;;;;;;;5071910;28;20017;-80
2021/05/29 11:56:40;;;;;;;2.97;1.95;;;;;;;;;;5069338;28;20035;-75
2021/05/29 11:59:09;;;;;;;6.95;2.28;;;;;;;;;;5071048;28;20038;-79
2021/05/29 12:01:39;;;;;;;12.55;2.60;;;;;;;;;;5058606;28;20031;-78
2021/05/29 12:04:08;;;;;;;3.55;2.20;;;;;;;;;;5068829;28;20024;-79
2021/05/29 12:06:45;;;;;;;4.90;2.22;;;;;;;;;;5068881;28;20083;-78
2021/05/29 12:09:11;;;;;;;2.45;2.03;;;;;;;;;;5080028;28;20101;-79
2021/05/29 12:11:38;;;;;;;12.23;2.00;;;;;;;;;;5071619;28;20505;-77
2021/05/29 12:14:06;;;;;;;5.82;2.15;;;;;;;;;;5068952;28;20182;-79
2021/05/29 12:16:37;;;;;;;4.10;2.35;;;;;;;;;;5080270;28;20028;-78
2021/05/29 12:19:04;;;;;;;8.27;2.30;;;;;;;;;;5076050;28;20043;-76
2021/05/29 12:21:48;;;;;;;5.20;2.25;;;;;;;;;;5075672;28;20016;-79
2021/05/29 12:24:14;;;;;;;6.40;2.10;;;;;;;;;;5073740;28;20099;-79
2021/05/29 12:26:40;;;;;;;3.55;2.08;;;;;;;;;;5074899;28;20530;-79
2021/05/29 12:29:06;;;;;;;7.47;2.40;;;;;;;;;;5073943;28;20031;-79
2021/05/29 12:31:44;;;;;;;10.57;2.72;;;;;;;;;;5078050;28;20424;-77
2021/05/29 12:34:13;;;;;;;6.05;2.72;;;;;;;;;;5072004;28;20477;-73
2021/05/29 12:36:55;;;;;;;4.85;2.42;;;;;;;;;;5074706;28;20416;-79
2021/05/29 12:39:22;;;;;;;3.10;2.10;;;;;;;;;;5061120;28;20358;-80
2021/05/29 12:41:48;;;;;;;6.25;2.33;;;;;;;;;;5070946;28;20059;-73
2021/05/29 12:44:14;;;;;;;4.38;2.15;;;;;;;;;;5073914;28;20167;-79
2021/05/29 12:46:40;;;;;;;4.55;2.38;;;;;;;;;;5077449;28;20052;-79
2021/05/29 12:49:09;;;;;;;3.78;2.17;;;;;;;;;;5074978;28;20019;-78
2021/05/29 12:51:45;;;;;;;3.78;2.13;;;;;;;;;;5075242;28;20425;-79
2021/05/29 12:54:12;;;;;;;4.80;2.38;;;;;;;;;;5074547;28;20104;-79
2021/05/29 12:56:49;;;;;;;3.95;2.25;;;;;;;;;;5088697;28;20505;-79
2021/05/29 12:59:18;;;;;;;6.95;2.03;;;;;;;;;;5074312;28;20021;-74
2021/05/29 13:07:28;;;;;;;4.18;2.25;;;;;;;;;;5075607;28;20079;-78
2021/05/29 13:12:28;;;;;;;3.00;2.22;;;;;;;;;;5074305;28;20037;-77
2021/05/29 13:14:54;;;;;;;3.03;2.08;;;;;;;;;;5074552;28;20446;-80
2021/05/29 13:17:24;;;;;;;6.22;2.58;;;;;;;;;;5087590;28;20039;-79
2021/05/29 13:19:56;;;;;;;4.05;2.35;;;;;;;;;;5061122;28;20024;-79
2021/05/29 13:22:36;;;;;;;4.35;2.30;;;;;;;;;;5074294;28;20020;-73
2021/05/29 13:25:05;;;;;;;7.25;2.60;;;;;;;;;;5061836;28;20048;-78
2021/05/29 13:27:34;;;;;;;7.25;2.50;;;;;;;;;;5082202;28;20116;-77
2021/05/29 13:30:03;;;;;;;4.57;2.35;;;;;;;;;;5061003;28;20012;-78
2021/05/29 13:32:29;;;;;;;2.95;2.30;;;;;;;;;;5061703;28;20025;-77
2021/05/29 13:34:56;;;;;;;6.85;2.30;;;;;;;;;;5073214;28;20436;-75
2021/05/29 13:37:22;;;;;;;4.30;2.40;;;;;;;;;;5070897;28;20056;-73
2021/05/29 13:39:50;;;;;;;5.78;2.42;;;;;;;;;;5079253;28;20505;-75
2021/05/29 13:42:18;;;;;;;3.75;2.10;;;;;;;;;;5079580;28;20032;-74
2021/05/29 13:44:44;;;;;;;3.60;1.90;;;;;;;;;;5069109;28;20043;-73
2021/05/29 13:47:10;;;;;;;3.30;2.20;;;;;;;;;;5074753;28;20039;-78
2021/05/29 13:49:37;;;;;;;3.83;2.17;;;;;;;;;;5078453;28;20457;-79
2021/05/29 13:52:04;;;;;;;2.65;2.20;;;;;;;;;;5067048;28;20033;-77
2021/05/29 13:54:30;;;;;;;2.78;2.10;;;;;;;;;;5081480;28;20016;-73
2021/05/29 13:56:56;;;;;;;6.63;2.08;;;;;;;;;;5076454;28;20036;-77
2021/05/29 13:59:23;;;;;;;2.80;2.13;;;;;;;;;;5069288;28;20058;-79
2021/05/29 14:01:49;;;;;;;6.32;2.40;;;;;;;;;;5064515;28;20037;-77
2021/05/29 14:04:17;;;;;;;4.25;2.10;;;;;;;;;;5070872;28;20174;-78